Time;durP1;ratioP1;P1;durP2;ratioP2;P2;SDS_P1;SDS_P2;PMS_P1;PMS_P2;Temp;Humidity;BMP_temperature;BMP_pressure;BME280_temperature;BME280_humidity;BME280_pressure;Samples;Min_cycle;Max_cycle;Signal;HPM_P1;HPM_P2
2023/06/02 02:53:17;;;;;;;;;;;;;;;;;;;;;
2023/06/02 06:25:01;;;;;;;;;11.00;10.75;;;;;;;;6394978;22;45340;-90
2023/06/02 08:21:26;;;;;;;;;9.00;9.00;;;;;;;;6402879;22;45854;-79
2023/06/02 08:23:52;;;;;;;;;10.00;10.00;;;;;;;;5494751;22;12314627;-79
2023/06/02 08:26:17;;;;;;;;;10.00;10.00;;;;;;;;6178998;22;1855359;-79
2023/06/02 08:28:48;;;;;;;;;7.50;7.25;;;;;;;;5233841;22;15662230;-78
2023/06/02 08:31:35;;;;;;;;;5.00;5.00;;;;;;;;2816832;22;35170335;-78
2023/06/02 08:34:02;;;;;;;;;7.67;7.67;;;;;;;;5098608;22;18558838;-78
2023/06/02 08:36:27;;;;;;;;;8.33;8.33;;;;;;;;6411071;22;45240;-78
2023/06/02 08:38:55;;;;;;;;;;;;;;;;;;3091640;22;26228307;-78
2023/06/02 08:42:51;;;;;;;;;6.50;6.50;;;;;;;;3328731;22;114829532;-78
2023/06/02 08:45:26;;;;;;;;;11.50;11.50;;;;;;;;3307917;22;48121668;-81
2023/06/02 08:47:53;;;;;;;;;6.40;6.40;;;;;;;;2057337;22;46446798;-82
2023/06/02 08:50:21;;;;;;;;;6.25;6.25;;;;;;;;1180528;22;61560277;-85
2023/06/02 08:52:47;;;;;;;;;5.33;5.33;;;;;;;;6439601;22;45220;-87
2023/06/02 08:55:27;;;;;;;;;7.40;7.40;;;;;;;;3767815;22;41661263;-96
2023/06/02 08:58:10;;;;;;;;;6.00;6.00;;;;;;;;2089640;22;85673011;-96
2023/06/02 09:01:19;;;;;;;;;7.00;7.00;;;;;;;;2249296;22;46482528;-96
2023/06/02 09:05:18;;;;;;;;;11.00;11.00;;;;;;;;3489684;22;44350729;-96
2023/06/02 09:10:44;;;;;;;;;7.00;7.00;;;;;;;;4928286;22;27495741;-90
2023/06/02 09:13:41;;;;;;;;;;;;;;;;;;;;;
2023/06/02 09:26:12;;;;;;;;;;;;;;;;;;;;;
2023/06/02 09:35:53;;;;;;;;;8.00;8.00;;;;;;;;2131599;22;39513437;-92
2023/06/02 09:41:17;;;;;;;;;5.00;5.00;;;;;;;;4210700;22;30922978;-89
2023/06/02 09:43:42;;;;;;;;;5.50;5.50;;;;;;;;3953433;22;31427283;-88
2023/06/02 09:46:16;;;;;;;;;7.00;7.00;;;;;;;;5065965;22;29005951;-89
2023/06/02 09:48:53;;;;;;;;;5.00;5.00;;;;;;;;3076190;22;45110037;-89
2023/06/02 09:52:05;;;;;;;;;;;;;;;;;;444387;22;111891998;-88
2023/06/02 09:54:31;;;;;;;;;5.33;5.33;;;;;;;;4028921;22;39086881;-88
2023/06/02 09:56:56;;;;;;;;;6.00;6.00;;;;;;;;6438395;22;45324;-88
2023/06/02 09:59:21;;;;;;;;;12.33;11.33;;;;;;;;6435906;22;45837;-88
2023/06/02 10:01:48;;;;;;;;;9.00;9.00;;;;;;;;6438773;22;45338;-88
2023/06/02 10:04:13;;;;;;;;;9.67;8.67;;;;;;;;5991726;22;8408991;-94
2023/06/02 10:06:48;;;;;;;;;7.00;7.00;;;;;;;;4172894;22;22376089;-88
2023/06/02 10:10:05;;;;;;;;;;;;;;;;;;832140;22;79419119;-88
2023/06/02 10:13:16;;;;;;;;;5.50;5.50;;;;;;;;438998;22;103651743;-90
2023/06/02 10:16:02;;;;;;;;;8.00;8.00;;;;;;;;424989;22;77935941;-89
2023/06/02 10:19:53;;;;;;;;;5.50;5.50;;;;;;;;4;41876356;99215634;-88
2023/06/02 10:23:00;;;;;;;;;9.00;6.00;;;;;;;;1120754;22;58446498;-88
2023/06/02 10:25:56;;;;;;;;;5.00;5.00;;;;;;;;2027941;22;33274744;-88
2023/06/02 10:29:16;;;;;;;;;3.50;3.50;;;;;;;;1776075;22;92965366;-88
2023/06/02 10:31:43;;;;;;;;;9.75;9.75;;;;;;;;2653793;22;20862870;-88
2023/06/02 10:35:50;;;;;;;;;;;;;;;;;;3038635;22;91101392;-89
2023/06/02 10:38:45;;;;;;;;;4.00;4.00;;;;;;;;5467348;22;27645951;-88
2023/06/02 10:41:22;;;;;;;;;;;;;;;;;;877695;22;59215120;-88
2023/06/02 10:44:16;;;;;;;;;4.00;4.00;;;;;;;;1819297;22;49541401;-88
2023/06/02 10:46:41;;;;;;;;;7.00;6.00;;;;;;;;3557417;22;15001648;-89
2023/06/02 10:49:31;;;;;;;;;4.50;4.50;;;;;;;;2390280;22;46229895;-89
2023/06/02 10:52:06;;;;;;;;;5.33;5.33;;;;;;;;5027143;22;12431208;-89
2023/06/02 10:55:01;;;;;;;;;;;;;;;;;;3799966;22;52596017;-88
2023/06/02 10:58:09;;;;;;;;;5.50;5.50;;;;;;;;1396993;22;38133080;-89
2023/06/02 11:00:52;;;;;;;;;7.50;7.50;;;;;;;;3223128;22;27523481;-89
2023/06/02 11:03:17;;;;;;;;;6.00;6.00;;;;;;;;1195401;22;46187342;-89
2023/06/02 11:07:00;;;;;;;;;;;;;;;;;;974198;22;104078706;-89
2023/06/02 11:09:53;;;;;;;;;3.00;3.00;;;;;;;;2240850;22;115162079;-89
2023/06/02 11:14:52;;;;;;;;;6.00;6.00;;;;;;;;105807;22;139219762;-89
2023/06/02 11:20:23;;;;;;;;;;;;;;;;;;3245022;22;139557725;-89
2023/06/02 11:23:11;;;;;;;;;3.50;3.50;;;;;;;;3;49900528;117050695;-89
2023/06/02 11:27:09;;;;;;;;;4.50;3.00;;;;;;;;208599;22;116961373;-89
2023/06/02 11:29:44;;;;;;;;;5.00;5.00;;;;;;;;221216;22;104440439;-89
2023/06/02 11:34:28;;;;;;;;;11.50;11.50;;;;;;;;393777;22;114078070;-89
2023/06/02 11:37:43;;;;;;;;;6.50;6.50;;;;;;;;441960;22;138032962;-89
2023/06/02 11:42:34;;;;;;;;;3.00;3.00;;;;;;;;3;107630156;117050872;-89
2023/06/02 11:47:40;;;;;;;;;8.00;8.00;;;;;;;;221007;22;137666611;-89
2023/06/02 11:50:06;;;;;;;;;3.75;3.75;;;;;;;;5182746;22;23815894;-89
2023/06/02 11:54:19;;;;;;;;;;;;;;;;;;1214852;22;130280772;-89
2023/06/02 11:56:45;;;;;;;;;5.33;5.33;;;;;;;;4359274;22;47437025;-89
2023/06/02 11:59:14;;;;;;;;;10.25;7.00;;;;;;;;6483500;22;8709;-89
2023/06/02 12:04:31;;;;;;;;;;;;;;;;;;4028246;22;107673218;-90
2023/06/02 12:08:20;;;;;;;;;7.50;7.50;;;;;;;;3;66467187;125305705;-90
2023/06/02 12:14:08;;;;;;;;;4.00;4.00;;;;;;;;1920516;22;95603972;-90
2023/06/02 12:19:02;;;;;;;;;;;;;;;;;;3;106709760;106774828;-90
2023/06/02 12:24:08;;;;;;;;;3.00;3.00;;;;;;;;444170;22;139017879;-90
2023/06/02 12:28:42;;;;;;;;;5.50;5.50;;;;;;;;347755;22;139558603;-90
2023/06/02 12:32:43;;;;;;;;;6.00;6.00;;;;;;;;444208;22;117049626;-90
2023/06/02 12:35:09;;;;;;;;;6.00;5.67;;;;;;;;1749188;22;105529030;-89
2023/06/02 12:47:36;;;;;;;;;6.00;6.00;;;;;;;;222146;22;112222979;-89
2023/06/02 12:50:08;;;;;;;;;9.00;9.00;;;;;;;;222172;22;69280087;-89
2023/06/02 12:56:42;;;;;;;;;8.50;8.50;;;;;;;;154126;22;139478768;-89
2023/06/02 13:00:04;;;;;;;;;3.50;3.50;;;;;;;;222131;22;136237652;-89
2023/06/02 13:04:09;;;;;;;;;5.50;5.50;;;;;;;;444725;22;116204065;-89
2023/06/02 13:07:34;;;;;;;;;6.00;6.00;;;;;;;;3;65454545;139113712;-91
2023/06/02 13:11:40;;;;;;;;;;;;;;;;;;391956;22;115047801;-91
2023/06/02 13:15:10;;;;;;;;;7.50;7.50;;;;;;;;3;99880625;109545995;-90
2023/06/02 13:17:41;;;;;;;;;8.00;8.00;;;;;;;;627419;22;88184064;-90
2023/06/02 13:20:07;;;;;;;;;9.00;8.67;;;;;;;;1622039;22;70959933;-90
2023/06/02 13:23:35;;;;;;;;;7.00;7.00;;;;;;;;1808223;22;77174279;-90
2023/06/02 13:26:40;;;;;;;;;6.50;6.50;;;;;;;;430571;22;117203466;-90
2023/06/02 13:30:38;;;;;;;;;6.50;6.50;;;;;;;;209862;22;129728822;-90
2023/06/02 13:35:18;;;;;;;;;;;;;;;;;;1864902;22;106563824;-90
2023/06/02 13:40:30;;;;;;;;;6.00;6.00;;;;;;;;3;90016453;121738312;-89
2023/06/02 13:45:12;;;;;;;;;6.50;6.50;;;;;;;;439584;22;138053667;-89
2023/06/02 13:48:33;;;;;;;;;8.50;8.50;;;;;;;;3;89978302;109188805;-89
2023/06/02 13:51:29;;;;;;;;;2.50;2.50;;;;;;;;365872;22;74383797;-89
2023/06/02 13:55:23;;;;;;;;;9.50;9.50;;;;;;;;646277;22;113979678;-89
2023/06/02 13:58:10;;;;;;;;;8.50;8.50;;;;;;;;1307293;22;52854924;-89
2023/06/02 14:04:10;;;;;;;;;7.50;7.50;;;;;;;;1911538;22;118729036;-90
2023/06/02 14:07:47;;;;;;;;;;;;;;;;;;1100255;22;89272227;-90
2023/06/02 14:10:59;;;;;;;;;2.00;2.00;;;;;;;;1318039;22;94416008;-90
2023/06/02 14:13:26;;;;;;;;;4.00;4.00;;;;;;;;3753339;22;35081725;-89
2023/06/02 14:15:52;;;;;;;;;8.33;8.33;;;;;;;;3485242;22;22095501;-90
2023/06/02 14:18:17;;;;;;;;;;;;;;;;;;2715850;22;24601987;-89
2023/06/02 14:20:42;;;;;;;;;7.67;7.67;;;;;;;;1464673;22;35895397;-90
2023/06/02 14:23:20;;;;;;;;;9.00;9.00;;;;;;;;1832908;22;31496988;-90
2023/06/02 14:25:55;;;;;;;;;6.00;6.00;;;;;;;;2077189;22;57447609;-90
2023/06/02 14:28:21;;;;;;;;;8.67;8.67;;;;;;;;3700805;22;22202617;-90
2023/06/02 14:30:46;;;;;;;;;9.50;9.50;;;;;;;;993087;22;107448247;-90
2023/06/02 14:34:21;;;;;;;;;4.50;4.50;;;;;;;;804221;22;86550776;-90
2023/06/02 14:38:36;;;;;;;;;8.00;8.00;;;;;;;;1322571;22;88134473;-89
2023/06/02 14:41:01;;;;;;;;;2.50;2.50;;;;;;;;2187024;22;23924366;-89
2023/06/02 14:43:26;;;;;;;;;7.00;7.00;;;;;;;;3468170;22;57266732;-89
2023/06/02 14:46:31;;;;;;;;;;;;;;;;;;3924280;22;86294636;-89
2023/06/02 14:49:18;;;;;;;;;12.00;12.00;;;;;;;;1714093;22;31871259;-89
2023/06/02 14:51:43;;;;;;;;;9.00;9.00;;;;;;;;981424;22;92656679;-89
2023/06/02 14:56:02;;;;;;;;;;;;;;;;;;2224096;22;94953040;-89
2023/06/02 14:58:31;;;;;;;;;9.00;9.00;;;;;;;;441911;22;64207936;-90
2023/06/02 15:00:56;;;;;;;;;8.00;8.00;;;;;;;;2786845;22;38833583;-89
2023/06/02 15:03:21;;;;;;;;;10.67;8.67;;;;;;;;6196769;22;4757357;-89
2023/06/02 15:05:46;;;;;;;;;9.00;9.00;;;;;;;;6411553;22;45285;-90
2023/06/02 15:08:12;;;;;;;;;8.67;8.67;;;;;;;;6440060;22;45257;-89
2023/06/02 15:10:37;;;;;;;;;6.00;6.00;;;;;;;;6410733;22;45276;-90
2023/06/02 15:13:02;;;;;;;;;8.00;7.67;;;;;;;;6439934;22;45253;-89
2023/06/02 15:15:28;;;;;;;;;7.67;7.67;;;;;;;;6440391;22;45247;-90
2023/06/02 15:18:04;;;;;;;;;13.00;11.00;;;;;;;;6163140;22;15401962;-90
2023/06/02 15:20:31;;;;;;;;;;;;;;;;;;994757;22;49463165;-89
2023/06/02 15:22:56;;;;;;;;;8.60;8.20;;;;;;;;6024609;22;9167536;-89
2023/06/02 15:25:29;;;;;;;;;7.50;7.50;;;;;;;;6207976;22;8772350;-89
2023/06/02 15:28:04;;;;;;;;;4.50;4.50;;;;;;;;3378852;22;17302348;-90
2023/06/02 15:30:29;;;;;;;;;6.33;6.00;;;;;;;;5183014;22;27797057;-90
2023/06/02 15:32:55;;;;;;;;;7.00;7.00;;;;;;;;6411178;22;45390;-90
2023/06/02 15:35:25;;;;;;;;;10.50;10.50;;;;;;;;4798326;22;17814240;-90
2023/06/02 15:37:50;;;;;;;;;8.00;8.00;;;;;;;;5274072;22;14089151;-89
2023/06/02 15:40:15;;;;;;;;;6.67;6.67;;;;;;;;6439021;22;45259;-90
2023/06/02 15:42:40;;;;;;;;;7.00;7.00;;;;;;;;6439573;22;45485;-90
2023/06/02 15:45:08;;;;;;;;;6.00;6.00;;;;;;;;6439627;22;45517;-89
2023/06/02 15:47:33;;;;;;;;;6.00;6.00;;;;;;;;4051452;22;45958554;-90
2023/06/02 15:50:06;;;;;;;;;5.50;5.50;;;;;;;;1017320;22;60318824;-90
2023/06/02 15:52:31;;;;;;;;;8.00;8.00;;;;;;;;1424517;22;101258274;-90
2023/06/02 15:57:33;;;;;;;;;;;;;;;;;;2791038;22;117111149;-90
2023/06/02 16:00:01;;;;;;;;;9.50;9.50;;;;;;;;222033;22;69020979;-90
2023/06/02 16:02:48;;;;;;;;;8.50;8.50;;;;;;;;2130838;22;50349035;-90
2023/06/02 16:05:14;;;;;;;;;7.33;7.33;;;;;;;;2172558;22;48819632;-90
2023/06/02 16:08:37;;;;;;;;;;;;;;;;;;1175401;22;106692049;-90
2023/06/02 16:12:16;;;;;;;;;7.00;7.00;;;;;;;;1101813;22;78760106;-90
2023/06/02 16:14:41;;;;;;;;;7.00;6.00;;;;;;;;5922827;22;11618836;-90
2023/06/02 16:17:07;;;;;;;;;7.00;5.00;;;;;;;;6440487;22;45221;-90
2023/06/02 16:19:32;;;;;;;;;6.33;6.33;;;;;;;;6440485;22;45552;-90
2023/06/02 16:25:03;;;;;;;;;11.00;7.00;;;;;;;;3096063;22;134561385;-90
2023/06/02 16:29:12;;;;;;;;;6.00;6.00;;;;;;;;192912;22;113033157;-87
2023/06/02 16:31:46;;;;;;;;;8.00;8.00;;;;;;;;2150286;22;52366818;-87
2023/06/02 16:34:14;;;;;;;;;10.00;9.50;;;;;;;;2522831;22;37897668;-87
2023/06/02 16:38:46;;;;;;;;;5.00;5.00;;;;;;;;5080630;22;98245352;-87
2023/06/02 16:41:11;;;;;;;;;4.00;4.00;;;;;;;;3363016;22;68583825;-87
2023/06/02 16:44:37;;;;;;;;;;;;;;;;;;1517479;22;84419527;-88
2023/06/02 16:47:02;;;;;;;;;2.00;2.00;;;;;;;;1340646;22;33219523;-88
2023/06/02 16:49:56;;;;;;;;;2.50;2.50;;;;;;;;429294;22;61357754;-88
2023/06/02 16:53:59;;;;;;;;;12.00;9.00;;;;;;;;794371;22;99271136;-87
2023/06/02 16:56:26;;;;;;;;;5.25;5.25;;;;;;;;3072267;22;31209355;-87
2023/06/02 16:59:09;;;;;;;;;;;;;;;;;;2141107;22;51135385;-88
2023/06/02 17:01:34;;;;;;;;;6.60;6.60;;;;;;;;2408004;22;17283619;-88
2023/06/02 17:04:16;;;;;;;;;5.00;5.00;;;;;;;;1097758;22;55494366;-88
2023/06/02 17:06:41;;;;;;;;;7.50;7.50;;;;;;;;1512263;22;39890900;-88
2023/06/02 17:09:07;;;;;;;;;7.25;7.25;;;;;;;;970349;22;54924608;-88
2023/06/02 17:14:20;;;;;;;;;;;;;;;;;;1635123;22;97526742;-88
2023/06/02 17:16:46;;;;;;;;;8.75;8.75;;;;;;;;1128606;22;84515988;-87
2023/06/02 17:19:23;;;;;;;;;;;;;;;;;;3835179;22;33937788;-88
2023/06/02 20:59:49;;;;;;;;;;;;;;;;;;;;;
2023/06/02 21:02:27;;;;;;;;;;;;;;;;;;;;;
2023/06/02 21:05:01;;;;;;;;;7.25;7.00;;;;;;;;6127395;22;2629111;-90
2023/06/02 21:07:37;;;;;;;;;;;;;;;;;;;;;
2023/06/02 21:10:15;;;;;;;;;9.00;8.00;;;;;;;;5835790;22;3144410;-90
2023/06/02 21:12:52;;;;;;;;;8.00;8.00;;;;;;;;6359878;22;45231;-90
2023/06/02 21:15:51;;;;;;;;;4.33;4.33;;;;;;;;6360211;22;44616;-90
2023/06/02 21:18:56;;;;;;;;;;;;;;;;;;;;;
2023/06/02 21:34:26;;;;;;;;;5.00;5.00;;;;;;;;6043197;23;45353;-90
2023/06/02 21:37:10;;;;;;;;;;;;;;;;;;;;;
2023/06/02 21:39:58;;;;;;;;;7.00;7.00;;;;;;;;6121847;23;53090;-90
2023/06/02 21:43:22;;;;;;;;;6.67;5.67;;;;;;;;6142454;23;165314;-90
2023/06/02 21:46:07;;;;;;;;;;;;;;;;;;;;;
2023/06/02 21:48:41;;;;;;;;;10.33;5.33;;;;;;;;6276299;22;67180;-90
2023/06/02 21:51:26;;;;;;;;;4.33;4.33;;;;;;;;6248821;22;45234;-90
2023/06/02 21:54:23;;;;;;;;;6.00;5.00;;;;;;;;6254201;22;47144;-90
2023/06/02 22:00:26;;;;;;;;;;;;;;;;;;;;;
2023/06/02 22:06:10;;;;;;;;;;;;;;;;;;;;;
2023/06/02 22:09:25;;;;;;;;;;;;;;;;;;;;;
2023/06/02 22:12:02;;;;;;;;;4.00;4.00;;;;;;;;6406498;22;45430;-90
2023/06/02 22:18:12;;;;;;;;;4.67;4.67;;;;;;;;6336032;22;42399;-90
2023/06/02 22:21:07;;;;;;;;;3.00;2.67;;;;;;;;6402954;22;45391;-91
2023/06/02 22:23:53;;;;;;;;;7.00;5.67;;;;;;;;6362378;22;45238;-90
2023/06/02 22:26:41;;;;;;;;;3.00;3.00;;;;;;;;6378864;22;45293;-90
2023/06/02 22:29:29;;;;;;;;;4.33;4.33;;;;;;;;6422440;22;28522;-91
2023/06/02 22:36:01;;;;;;;;;;;;;;;;;;;;;
2023/06/02 22:38:52;;;;;;;;;;;;;;;;;;;;;
2023/06/02 22:41:51;;;;;;;;;;;;;;;;;;;;;
2023/06/02 22:51:01;;;;;;;;;;;;;;;;;;;;;
2023/06/02 22:57:25;;;;;;;;;;;;;;;;;;;;;
2023/06/02 23:02:39;;;;;;;;;4.67;4.67;;;;;;;;6313963;22;45560;-90
2023/06/02 23:05:23;;;;;;;;;;;;;;;;;;;;;
2023/06/02 23:08:19;;;;;;;;;;;;;;;;;;;;;
2023/06/02 23:11:15;;;;;;;;;;;;;;;;;;;;;
2023/06/02 23:14:23;;;;;;;;;6.33;6.00;;;;;;;;6392486;22;65750;-90
2023/06/02 23:20:30;;;;;;;;;;;;;;;;;;;;;
2023/06/02 23:26:30;;;;;;;;;6.75;6.00;;;;;;;;6134826;22;960953;-90
2023/06/02 23:29:48;;;;;;;;;5.67;4.67;;;;;;;;6381937;22;161261;-90
2023/06/02 23:35:39;;;;;;;;;;;;;;;;;;;;;
2023/06/02 23:38:32;;;;;;;;;;;;;;;;;;;;;
2023/06/02 23:47:52;;;;;;;;;8.00;7.67;;;;;;;;6243418;22;45558;-90
2023/06/02 23:51:08;;;;;;;;;;;;;;;;;;;;;
2023/06/02 23:54:02;;;;;;;;;;;;;;;;;;;;;
2023/06/02 23:56:57;;;;;;;;;;;;;;;;;;;;;
